createdAt,value
2023-05-18T00:07:26.834Z,10.00
2023-05-18T00:17:14.380Z,10.00
2023-05-18T00:20:40.049Z,10.00
2023-05-18T00:23:23.516Z,9.90
2023-05-18T00:28:57.215Z,10.00
2023-05-18T00:32:23.845Z,10.00
2023-05-18T00:35:38.364Z,9.90
2023-05-18T00:38:30.849Z,10.00
2023-05-18T00:41:10.934Z,10.00
2023-05-18T00:47:06.998Z,9.90
2023-05-18T00:54:13.468Z,9.80
2023-05-18T00:56:29.463Z,9.80
2023-05-18T01:06:27.260Z,9.70
2023-05-18T01:12:55.544Z,9.60
2023-05-18T01:27:35.113Z,9.40
2023-05-18T01:37:45.138Z,9.20
2023-05-18T01:49:08.924Z,9.00
2023-05-18T01:51:58.032Z,8.90
2023-05-18T01:56:15.261Z,9.00
2023-05-18T01:59:27.338Z,8.90
2023-05-18T02:09:39.927Z,8.60
2023-05-18T02:16:33.488Z,8.50
2023-05-18T02:42:41.606Z,8.00
2023-05-18T04:53:54.413Z,7.90
2023-05-18T04:56:26.658Z,8.00
2023-05-18T04:58:53.476Z,8.00
2023-05-18T05:01:20.534Z,8.10
2023-05-18T05:03:47.853Z,8.10
2023-05-18T05:06:18.462Z,8.10
2023-05-18T05:08:51.748Z,8.10
2023-05-18T05:11:18.597Z,8.00
2023-05-18T05:13:49.448Z,8.10
2023-05-18T05:16:19.065Z,8.10
2023-05-18T05:18:48.539Z,8.20
2023-05-18T05:21:18.606Z,8.20
2023-05-18T05:25:21.066Z,8.20
2023-05-18T05:27:57.944Z,8.20
2023-05-18T05:30:31.642Z,8.30
2023-05-18T05:33:06.690Z,8.30
2023-05-18T05:35:36.398Z,8.20
2023-05-18T05:38:12.497Z,8.30
2023-05-18T05:40:51.007Z,8.30
2023-05-18T05:43:20.641Z,8.40
2023-05-18T05:46:15.719Z,8.50
2023-05-18T05:48:57.281Z,8.50
2023-05-18T05:51:31.478Z,8.50
2023-05-18T05:54:09.305Z,8.50
2023-05-18T05:56:40.697Z,8.50
2023-05-18T05:59:11.002Z,8.50
2023-05-18T07:37:03.611Z,9.80
2023-05-18T07:39:30.357Z,10.00
2023-05-18T07:41:57.135Z,10.00
2023-05-18T07:44:24.478Z,10.00
2023-05-18T07:46:51.510Z,10.10
2023-05-18T07:49:18.403Z,10.10
2023-05-18T07:51:45.413Z,10.00
2023-05-18T07:54:12.870Z,10.20
2023-05-18T07:56:45.071Z,10.20
2023-05-18T07:59:12.108Z,10.30
2023-05-18T08:01:39.955Z,10.50
2023-05-18T08:04:06.938Z,10.60
2023-05-18T08:06:33.868Z,10.70
2023-05-18T08:09:00.794Z,10.80
2023-05-18T08:11:27.671Z,10.90
2023-05-18T08:13:54.597Z,11.00
2023-05-18T08:16:21.545Z,10.90
2023-05-18T08:18:48.494Z,11.00
2023-05-18T08:21:15.550Z,11.10
2023-05-18T08:23:44.707Z,11.20
2023-05-18T08:26:13.947Z,11.20
2023-05-18T08:28:41.070Z,11.20
2023-05-18T08:31:09.499Z,11.10
2023-05-18T08:33:36.363Z,11.20
2023-05-18T08:36:03.552Z,11.20
2023-05-18T08:38:33.855Z,11.30
2023-05-18T08:41:38.742Z,11.30
2023-05-18T08:44:30.817Z,11.30
2023-05-18T08:46:58.703Z,11.30
2023-05-18T08:49:27.401Z,11.20
2023-05-18T08:52:00.737Z,11.30
2023-05-18T08:54:30.167Z,11.20
2023-05-18T08:56:58.761Z,11.30
2023-05-18T08:59:30.359Z,11.30
2023-05-18T09:01:57.456Z,11.30
2023-05-18T09:04:24.401Z,11.30
2023-05-18T09:06:53.918Z,11.40
2023-05-18T09:09:22.513Z,11.30
2023-05-18T09:11:50.839Z,11.40
2023-05-18T09:14:17.756Z,11.30
2023-05-18T09:16:44.824Z,11.20
2023-05-18T09:19:11.712Z,11.20
2023-05-18T09:21:39.291Z,11.20
2023-05-18T09:24:06.680Z,11.20
2023-05-18T09:26:33.834Z,11.10
2023-05-18T09:29:01.410Z,11.20
2023-05-18T09:31:31.108Z,11.20
2023-05-18T09:34:00.159Z,11.10
2023-05-18T09:36:29.309Z,11.20
2023-05-18T09:38:56.441Z,11.30
2023-05-18T09:41:27.088Z,11.20
2023-05-18T09:43:54.866Z,11.20
2023-05-18T09:46:22.285Z,11.20
2023-05-18T09:48:52.379Z,11.20
2023-05-18T09:51:19.302Z,11.30
2023-05-18T09:53:53.708Z,11.30
2023-05-18T09:56:24.543Z,11.20
2023-05-18T09:58:51.807Z,11.20
2023-05-18T10:01:19.056Z,11.20
2023-05-18T10:03:48.502Z,11.10
2023-05-18T10:06:19.842Z,11.10
2023-05-18T10:08:46.877Z,11.20
2023-05-18T10:11:19.656Z,11.20
2023-05-18T10:13:56.282Z,11.20
2023-05-18T10:16:24.294Z,11.30
2023-05-18T10:18:54.291Z,11.30
2023-05-18T10:21:24.521Z,11.40
2023-05-18T10:23:52.667Z,11.40
2023-05-18T10:26:23.379Z,11.50
2023-05-18T10:28:52.438Z,11.50
2023-05-18T10:31:21.819Z,11.40
2023-05-18T10:33:52.011Z,11.50
2023-05-18T10:36:19.552Z,11.50
2023-05-18T10:38:47.399Z,11.40
2023-05-18T10:41:15.204Z,11.50
2023-05-18T10:43:50.944Z,11.40
2023-05-18T10:46:18.590Z,11.40
2023-05-18T10:48:53.233Z,11.40
2023-05-18T10:51:23.707Z,11.40
2023-05-18T10:53:50.620Z,11.50
2023-05-18T10:56:17.781Z,11.50
2023-05-18T10:58:46.262Z,11.50
2023-05-18T11:01:16.032Z,11.50
2023-05-18T11:03:43.034Z,11.50
2023-05-18T11:06:12.087Z,11.50
2023-05-18T11:08:49.838Z,11.50
2023-05-18T11:11:19.961Z,11.50
2023-05-18T11:13:51.699Z,11.60
2023-05-18T11:16:19.894Z,11.50
2023-05-18T11:18:51.640Z,11.50
2023-05-18T11:21:20.034Z,11.30
2023-05-18T11:24:17.361Z,11.40
2023-05-18T11:26:51.100Z,11.40
2023-05-18T11:29:31.432Z,11.40
2023-05-18T11:31:58.858Z,11.50
2023-05-18T11:34:53.211Z,11.50
2023-05-18T11:37:38.448Z,11.60
2023-05-18T11:40:13.334Z,11.50
2023-05-18T11:42:40.686Z,11.50
2023-05-18T11:45:11.026Z,11.50
2023-05-18T11:47:40.716Z,11.40
2023-05-18T11:50:10.304Z,11.50
2023-05-18T11:52:48.109Z,11.40
2023-05-18T11:55:16.696Z,11.40
2023-05-18T11:57:45.603Z,11.30
2023-05-18T12:00:13.415Z,11.30
2023-05-18T12:02:44.527Z,11.30
2023-05-18T12:05:11.999Z,11.30
2023-05-18T12:07:41.930Z,11.40
2023-05-18T12:10:14.832Z,11.50
2023-05-18T12:12:42.888Z,11.50
2023-05-18T12:15:11.717Z,11.50
2023-05-18T12:17:42.858Z,11.70
2023-05-18T12:20:12.432Z,11.60
2023-05-18T12:22:52.544Z,11.60
2023-05-18T12:25:25.725Z,11.60
2023-05-18T12:27:54.686Z,11.60
2023-05-18T12:30:25.698Z,11.60
2023-05-18T12:32:55.232Z,11.50
2023-05-18T12:35:25.736Z,11.50
2023-05-18T12:37:52.800Z,11.50
2023-05-18T12:40:20.543Z,11.40
2023-05-18T12:43:00.804Z,11.40
2023-05-18T12:45:32.834Z,11.40
2023-05-18T12:48:10.997Z,11.40
2023-05-18T12:50:50.917Z,11.30
2023-05-18T12:53:18.428Z,11.30
2023-05-18T12:55:45.419Z,11.30
2023-05-18T12:58:18.487Z,11.30
2023-05-18T13:00:47.510Z,11.20
2023-05-18T13:03:17.169Z,11.30
2023-05-18T13:05:46.121Z,11.20
2023-05-18T13:08:22.017Z,11.20
2023-05-18T13:10:53.286Z,11.30
2023-05-18T13:13:28.840Z,11.30
2023-05-18T13:15:55.829Z,11.20
2023-05-18T13:18:22.675Z,11.20
2023-05-18T13:20:51.688Z,11.30
2023-05-18T13:23:21.233Z,11.20
2023-05-18T13:25:51.490Z,11.30
2023-05-18T13:28:20.326Z,11.30
2023-05-18T13:30:49.118Z,11.40
2023-05-18T13:33:17.953Z,11.40
2023-05-18T13:35:45.086Z,11.50
2023-05-18T13:38:13.767Z,11.50
2023-05-18T13:40:41.911Z,11.50
2023-05-18T13:43:10.918Z,11.50
2023-05-18T13:45:39.420Z,11.40
2023-05-18T13:48:09.612Z,11.40
2023-05-18T13:50:37.782Z,11.30
2023-05-18T13:53:04.827Z,11.30
2023-05-18T13:55:33.266Z,11.30
2023-05-18T13:58:00.976Z,11.30
2023-05-18T14:00:28.130Z,11.30
2023-05-18T14:02:55.276Z,11.20
2023-05-18T14:05:22.542Z,11.20
2023-05-18T14:07:50.265Z,11.20
2023-05-18T14:10:17.166Z,11.20
2023-05-18T14:12:44.652Z,11.00
2023-05-18T14:15:13.887Z,11.00
2023-05-18T14:17:41.801Z,10.90
2023-05-18T14:20:11.288Z,11.00
2023-05-18T14:22:38.257Z,10.90
2023-05-18T14:25:05.678Z,10.90
2023-05-18T14:27:32.722Z,11.00
2023-05-18T14:30:02.211Z,11.00
2023-05-18T14:32:29.265Z,11.00
2023-05-18T14:34:58.105Z,11.00
2023-05-18T14:37:25.289Z,11.00
2023-05-18T14:39:52.091Z,11.00
2023-05-18T14:42:18.968Z,10.90
2023-05-18T14:44:46.178Z,10.80
2023-05-18T14:47:13.108Z,10.80
2023-05-18T15:04:29.208Z,10.80
2023-05-18T15:07:16.282Z,10.70
2023-05-18T15:48:04.539Z,10.40
2023-05-18T16:02:24.388Z,10.40
2023-05-18T16:34:55.627Z,10.40
2023-05-18T16:47:24.324Z,10.40
2023-05-18T16:53:24.005Z,10.40
2023-05-18T16:57:31.869Z,10.30
2023-05-18T17:00:19.637Z,10.30
2023-05-18T17:02:41.433Z,10.30
2023-05-18T17:05:11.313Z,10.30
2023-05-18T17:07:44.073Z,10.20
2023-05-18T17:10:16.815Z,10.20
2023-05-18T17:12:43.834Z,10.20
2023-05-18T17:15:31.648Z,10.20
2023-05-18T17:18:01.234Z,10.20
2023-05-18T17:20:28.470Z,10.10
2023-05-18T17:22:56.972Z,10.10
2023-05-18T17:25:26.407Z,10.10
2023-05-18T17:28:00.133Z,10.10
2023-05-18T17:30:27.178Z,10.10
2023-05-18T17:32:57.569Z,10.10
2023-05-18T17:35:25.727Z,10.10
2023-05-18T17:37:54.934Z,10.20
2023-05-18T17:40:24.449Z,10.10
2023-05-18T17:42:56.649Z,10.10
2023-05-18T17:45:23.566Z,10.10
2023-05-18T17:47:57.814Z,10.10
2023-05-18T17:50:33.940Z,10.00
2023-05-18T17:53:01.397Z,10.00
2023-05-18T17:55:28.425Z,10.00
2023-05-18T17:57:59.628Z,10.00
2023-05-18T18:00:29.293Z,10.00
2023-05-18T18:02:59.388Z,10.00
2023-05-18T18:05:26.630Z,10.00
2023-05-18T18:07:58.799Z,10.00
2023-05-18T18:10:28.657Z,10.00
2023-05-18T18:12:58.056Z,9.90
2023-05-18T18:18:14.512Z,9.90
2023-05-18T18:20:43.733Z,9.90
2023-05-18T18:23:12.026Z,9.90
2023-05-18T18:25:39.129Z,9.90
2023-05-18T18:28:08.114Z,9.90
2023-05-18T18:30:38.215Z,9.90
2023-05-18T18:33:06.343Z,9.90
2023-05-18T18:35:34.629Z,9.90
2023-05-18T18:38:01.613Z,9.90
2023-05-18T18:40:28.515Z,9.90
2023-05-18T18:42:58.242Z,9.90
2023-05-18T18:45:34.260Z,9.80
2023-05-18T18:48:22.637Z,10.00
2023-05-18T18:51:28.225Z,9.90
2023-05-18T18:54:06.857Z,9.80
2023-05-18T18:56:36.871Z,9.80
2023-05-18T18:59:06.651Z,9.70
2023-05-18T19:01:33.940Z,9.70
2023-05-18T19:04:33.203Z,9.60
2023-05-18T19:07:09.524Z,9.70
2023-05-18T19:09:49.240Z,9.60
2023-05-18T19:12:21.381Z,9.60
2023-05-18T19:14:53.686Z,9.60
2023-05-18T19:17:21.294Z,9.60
2023-05-18T19:19:55.432Z,9.60
2023-05-18T19:23:09.693Z,9.60
2023-05-18T19:25:42.692Z,9.60
2023-05-18T19:28:09.754Z,9.70
2023-05-18T19:30:42.049Z,9.60
2023-05-18T19:33:16.160Z,9.60
2023-05-18T19:35:45.594Z,9.60
2023-05-18T19:38:13.744Z,9.60
2023-05-18T19:40:40.762Z,9.60
2023-05-18T19:43:07.803Z,9.60
2023-05-18T19:45:35.165Z,9.50
2023-05-18T19:48:09.973Z,9.50
2023-05-18T19:50:39.782Z,9.50
2023-05-18T19:53:15.217Z,9.50
2023-05-18T19:55:45.727Z,9.50
2023-05-18T19:58:15.049Z,9.50
2023-05-18T20:00:48.685Z,9.50
2023-05-18T20:03:16.539Z,9.50
2023-05-18T20:05:43.868Z,9.50
2023-05-18T20:08:13.159Z,9.50
2023-05-18T20:10:40.042Z,9.50
2023-05-18T20:13:10.186Z,9.50
2023-05-18T20:15:41.549Z,9.50
2023-05-18T20:18:39.284Z,9.60
2023-05-18T20:21:10.598Z,9.40
2023-05-18T20:23:42.351Z,9.50
2023-05-18T20:26:09.114Z,9.40
2023-05-18T20:28:35.863Z,9.40
2023-05-18T20:31:02.646Z,9.40
2023-05-18T20:33:30.284Z,9.40
2023-05-18T20:35:57.145Z,9.40
2023-05-18T20:38:25.999Z,9.30
2023-05-18T20:40:53.648Z,9.30
2023-05-18T20:43:21.260Z,9.40
2023-05-18T20:45:49.557Z,9.40
2023-05-18T20:48:26.496Z,9.40
2023-05-18T20:50:53.424Z,9.40
2023-05-18T20:53:20.456Z,9.30
2023-05-18T20:55:47.604Z,9.30
2023-05-18T20:58:18.510Z,9.30
2023-05-18T21:00:47.905Z,9.30
2023-05-18T21:03:15.203Z,9.30
2023-05-18T21:05:45.709Z,9.30
2023-05-18T21:08:14.484Z,9.30
2023-05-18T21:10:41.859Z,9.30
2023-05-18T21:13:08.868Z,9.30
2023-05-18T21:15:37.369Z,9.30
2023-05-18T21:18:04.839Z,9.30
2023-05-18T21:20:32.703Z,9.30
2023-05-18T21:22:59.870Z,9.30
2023-05-18T21:25:26.872Z,9.30
2023-05-18T21:27:53.641Z,9.30
2023-05-18T21:30:20.412Z,9.30
2023-05-18T21:32:48.280Z,9.30
2023-05-18T21:35:15.487Z,9.30
2023-05-18T21:37:42.344Z,9.30
2023-05-18T21:40:09.713Z,9.30
2023-05-18T21:42:38.139Z,9.30
2023-05-18T21:45:05.297Z,9.20
2023-05-18T21:47:32.039Z,9.30
2023-05-18T21:49:58.735Z,9.30
2023-05-18T21:52:25.512Z,9.20
2023-05-18T21:54:52.219Z,9.20
2023-05-18T21:57:19.310Z,9.20
2023-05-18T21:59:46.162Z,9.10
2023-05-18T22:02:12.886Z,9.10
2023-05-18T22:04:39.735Z,9.10
2023-05-18T22:07:06.631Z,9.10
2023-05-18T22:09:33.360Z,9.10
2023-05-18T22:12:00.115Z,9.20
2023-05-18T22:14:26.890Z,9.10
2023-05-18T22:16:53.614Z,9.00
2023-05-18T22:19:20.375Z,9.10
2023-05-18T22:21:47.300Z,9.00
2023-05-18T22:24:14.084Z,9.10
2023-05-18T22:26:42.979Z,9.10
2023-05-18T22:29:09.965Z,9.10
2023-05-18T22:31:36.942Z,9.20
2023-05-18T22:34:04.004Z,9.20
2023-05-18T22:36:30.796Z,9.20
2023-05-18T22:38:57.869Z,9.20
2023-05-18T22:41:24.762Z,9.20
2023-05-18T22:43:51.540Z,9.20
2023-05-18T22:46:18.773Z,9.20
2023-05-18T22:48:45.566Z,9.20
2023-05-18T22:51:12.351Z,9.30
2023-05-18T22:53:39.093Z,9.30
2023-05-18T22:56:07.077Z,9.30
2023-05-18T22:58:33.913Z,9.30
2023-05-18T23:01:01.006Z,9.20
2023-05-18T23:03:27.721Z,9.20
2023-05-18T23:05:54.637Z,9.20
2023-05-18T23:08:21.399Z,9.30
2023-05-18T23:10:48.218Z,9.30
2023-05-18T23:13:16.255Z,9.30
2023-05-18T23:15:43.109Z,9.40
2023-05-18T23:18:10.142Z,9.40
2023-05-18T23:20:38.714Z,9.40
2023-05-18T23:23:05.574Z,9.40
2023-05-18T23:25:32.325Z,9.40
2023-05-18T23:27:59.130Z,9.30
2023-05-18T23:30:26.082Z,9.30
2023-05-18T23:32:53.300Z,9.30
2023-05-18T23:35:20.579Z,9.30
2023-05-18T23:37:49.845Z,9.30
2023-05-18T23:40:19.001Z,9.40
2023-05-18T23:42:46.378Z,9.30
2023-05-18T23:45:13.911Z,9.40
2023-05-18T23:47:40.939Z,9.30
2023-05-18T23:50:08.380Z,9.30
2023-05-18T23:52:36.288Z,9.30
2023-05-18T23:55:04.389Z,9.40
2023-05-18T23:57:31.643Z,9.40
2023-05-18T23:59:58.737Z,9.30
